Weather observations for the past three days for
Land O' Lakes, Kings Land O' Lakes Airport
Imperial (Metric)
Date Time (cdt) Wind (mph) Vis. (mi.) Weather Sky Cond. Temperature (ºF) Relative Humidity Wind Chill (°F) Heat Index (°F) Pressure Precipitation (in)
Air Dwpt 6 hour altimeter (in) sea level (mb) 1 hr 3 hr 6 hr
Max. Min.
01 20:35 Calm 10.00 Fair CLR 66.7 59 76% 29.95 0.0
01 20:15 Calm 10.00 Fair CLR 67.8 59.9 76% 29.95 0.0
01 19:55 Calm 10.00 Fair CLR 70.3 58.8 67% 29.94 0.0
01 19:35 W 3 10.00 Fair CLR 73.6 60.6 64% 29.93 0.0
01 19:15 Calm 10.00 Fair CLR 80.1 54 41% 80 29.93 0.0
01 18:55 W 5 10.00 Fair CLR 82 52.7 91 82 36% 81 29.92 0.0
01 18:35 W 6 10.00 Fair CLR 84.6 49.8 30% 82 29.92 0.0
01 18:15 W 6 10.00 Fair CLR 85.3 52 32% 83 29.92 0.0
01 17:55 W 7 10.00 Fair CLR 87.1 52.2 30% 85 29.92 0.0
01 17:35 W 9 G 16 10.00 Fair CLR 87.8 52.3 30% 85 29.92 0.0
01 17:15 W 9 10.00 Fair CLR 90 54.9 30% 88 29.92 0.0
01 16:35 W 7 10.00 Fair CLR 88.5 55.6 33% 87 29.92 0.0
01 16:15 W 7 10.00 Fair CLR 89.2 56.5 33% 88 29.92 0.0
01 15:55 SW 6 10.00 Fair CLR 89.6 56.1 32% 88 29.92 0.0
01 15:35 W 7 G 16 10.00 Fair CLR 90.3 55.9 31% 89 29.93 0.0
01 15:15 W 8 G 16 10.00 Fair CLR 90.7 56.3 31% 89 29.93 0.0
01 14:55 W 9 10.00 Fair CLR 90.9 56.7 32% 89 29.93 0.0
01 14:35 W 8 10.00 Fair CLR 89.8 56.8 33% 88 29.93 0.0
01 13:55 SW 8 10.00 Fair CLR 89.6 56.3 32% 88 29.95 0.0
01 13:35 SW 9 10.00 Fair CLR 89.8 55.2 31% 88 29.95 0.0
01 13:15 W 7 10.00 Fair CLR 89.4 54.3 30% 87 29.95 0.0
01 12:55 W 5 10.00 Fair CLR 88.3 55.4 88.3 56.3 33% 87 29.96 0.0
01 12:35 W 7 10.00 Fair CLR 87.8 55 33% 86 29.97 0.0
01 12:15 SW 6 10.00 Fair CLR 87.6 55.9 34% 86 29.97 0.0
01 11:55 SW 7 10.00 Fair CLR 86.2 55.8 35% 85 29.98 0.0
01 11:35 W 7 10.00 Fair CLR 85.1 59 41% 85 29.99 0.0
01 11:15 SW 3 10.00 Fair CLR 83.8 59.5 44% 84 29.99 0.0
01 10:55 SW 3 10.00 Fair CLR 82.9 61.9 49% 84 30 0.0
01 10:35 W 5 10.00 Fair CLR 81.7 65.8 59% 84 30 0.0
01 10:15 SW 5 10.00 Fair CLR 81 66.2 61% 83 30 0.0
01 09:55 Calm 10.00 Fair CLR 79.3 67.1 66% 82 30 0.0
01 09:35 Calm 10.00 Fair CLR 75.7 75.2 98% 74 30 0.0
01 09:15 Calm 10.00 Fair CLR 71.4 71.4 100% 30 0.0
01 08:55 Calm 10.00 Fair CLR 70.5 70.5 100% 30 0.0
01 08:35 Calm 10.00 Fair CLR 68.9 68.9 100% 30 0.0
01 08:15 Calm 7.00 Partly Cloudy SCT001 67.1 67.1 100% 30 0.0
01 07:55 Calm 0.25 Fog OVC001 62.8 62.8 100% 30 0.0
01 07:35 Calm 0.50 Fog OVC001 60.1 60.1 100% 30 0.0
01 07:15 Calm 0.15 Fog OVC001 57.4 57.4 100% 30 0.0
01 06:55 Calm 0.25 Fog OVC001 56.3 56.3 63.5 55.8 100% 29.98 0.0
01 06:35 Calm 0.15 Fog OVC001 56.1 56.1 100% 29.98 0.0
01 06:15 Calm 0.25 Fog OVC001 56.1 56.1 100% 29.98 0.0
01 05:55 Calm 0.15 Fog OVC001 56.7 56.7 100% 29.97 0.0
01 05:35 Calm 0.25 Fog OVC001 56.3 56.3 100% 29.97 0.0
01 05:15 Calm 0.50 Fog OVC001 56.5 56.5 100% 29.97 0.0
01 04:35 Calm 0.25 Fog OVC001 57.4 57.4 100% 29.97 0.0
01 04:15 Calm 0.50 Fog OVC001 59 59 100% 29.97 0.0
01 03:55 Calm 0.50 Fog VV005 59 59 100% 29.97 0.0
01 03:35 Calm 0.25 Fog BKN001 59.5 59.5 100% 29.97 0.0
01 03:15 Calm 0.25 Fog OVC001 60.1 60.1 100% 29.97 0.0
01 02:55 Calm 0.25 Fog OVC001 60.8 60.8 100% 29.97 0.0
01 02:35 Calm 0.25 Fog OVC001 61.3 61.3 100% 29.97 0.0
01 02:15 Calm 0.25 Fog OVC001 61.9 61.9 100% 29.97 0.0
01 01:55 Calm 0.25 Fog OVC001 62.1 62.1 100% 29.97 0.0
01 01:35 Calm 0.25 Fog OVC001 62.8 62.8 100% 29.97 0.0
01 01:15 Calm 0.25 Fog OVC001 63.5 63.5 100% 29.97 0.0
01 00:55 Calm 0.15 Fog OVC001 63.5 63.5 81.3 63.5 100% 29.97 0.0
01 00:35 Calm 0.25 Fog OVC001 64 64 100% 29.97 0.0
01 00:15 Calm 0.25 Fog OVC001 64.6 64.6 100% 29.97 0.0
31 23:55 Calm 0.15 Fog OVC001 64.9 64.9 100% 29.97 0.0
31 23:35 Calm 0.25 Fog OVC001 65.5 65.5 100% 29.97 0.0
31 23:15 Calm 0.50 Fog VV005 65.3 65.3 100% 29.96 0.0
31 22:55 Calm 0.50 Fog VV005 66.7 66.7 100% 29.95 0.0
31 22:35 Calm 0.75 Fog/Mist VV005 67.3 67.3 100% 29.95 0.0
31 22:15 Calm 0.50 Fog VV005 67.5 67.5 100% 29.95 0.0
31 21:55 Calm 0.25 Fog VV002 68.7 68.7 100% 29.95 0.0
31 21:35 Calm 0.50 Fog VV005 69.6 69.6 100% 29.95 0.0
31 21:15 Calm 0.15 Fog VV000 70.9 70.9 100% 29.95 0.0
31 20:55 Calm 1.25 Fog/Mist VV007 71.1 71.1 100% 29.95 0.0
31 20:35 Calm 2.50 Fog/Mist CLR 72.5 72.5 100% 29.95 0.0
31 20:15 Calm 4.00 Fog/Mist CLR 73.6 73.6 100% 29.94 0.0
31 19:55 Calm 7.00 Fair CLR 74.8 74.3 98% 29.93 0.0
31 19:35 Calm 7.00 Fair CLR 76.3 75.2 96% 76 29.93 0.0
31 19:15 Calm 10.00 Partly Cloudy SCT032 78.6 75.4 90% 82 29.93 0.0
31 18:35 Calm 10.00 Fair CLR 82.9 73.8 74% 89 29.92 0.0
31 18:15 Calm 10.00 Fair CLR 83.5 74.3 74% 91 29.92 0.0
31 17:55 Calm 10.00 Partly Cloudy SCT029 SCT035 83.3 73.9 73% 90 29.93 0.0
31 17:35 W 3 10.00 Partly Cloudy SCT022 SCT032 83.5 73.2 71% 90 29.92 0.0
31 17:15 Calm 10.00 Partly Cloudy SCT022 SCT030 83.5 73 71% 90 29.91 0.0
31 16:55 Calm 10.00 Mostly Cloudy SCT024 BKN030 82.9 73.4 73% 89 29.91 0.0
31 16:35 W 6 10.00 Overcast OVC022 83.1 73.2 72% 89 29.91 0.0
31 16:15 W 5 10.00 Overcast OVC019 82.6 73.6 74% 89 29.9 0.0
31 15:55 Calm 10.00 Overcast OVC019 82.4 73.9 76% 89 29.9 0.0
31 15:35 SW 3 10.00 Overcast OVC019 82.4 73.6 75% 88 29.9 0.0
31 15:15 W 3 10.00 Overcast OVC016 82 74.1 77% 88 29.9 0.0
31 14:35 W 5 10.00 Overcast OVC014 82.6 74.3 76% 89 29.9 0.0
31 14:15 W 3 10.00 Mostly Cloudy BKN016 82.6 74.3 76% 89 29.9 0.0
31 13:55 W 6 10.00 Mostly Cloudy BKN016 BKN027 82.9 73.8 74% 89 29.9 0.0
31 13:30 W 5 10.00 Mostly Cloudy BKN014 BKN029 83.3 73.9 73% 90 29.9 0.0
31 13:15 Calm 10.00 Mostly Cloudy BKN012 83.7 74.1 73% 91 29.9 0.0
31 12:55 SW 5 10.00 Overcast OVC010 81.5 73.4 81.5 71.2 77% 87 29.91 0.0
31 12:35 Calm 10.00 Overcast OVC010 80.1 73.4 80% 84 29.91 0.0
31 12:15 SW 6 10.00 Overcast OVC010 79.5 73 81% 83 29.91 0.0
31 11:55 S 3 10.00 Overcast OVC008 78.3 73 84% 81 29.91 0.0
31 11:35 S 5 10.00 Overcast OVC006 76.3 72.5 88% 77 29.92 0.0
31 11:15 S 6 10.00 Overcast OVC006 75.4 72.7 91% 75 29.92 0.0
31 10:55 Calm 4.00 Fog/Mist OVC004 73.8 73.4 99% 29.92 0.0
31 10:35 Calm 1.75 Fog/Mist OVC004 73.4 73.4 100% 29.92 0.0
31 10:15 SE 6 1.50 Fog/Mist OVC004 72.9 72.9 100% 29.91 0.0
31 09:55 S 5 2.50 Fog/Mist OVC004 72.7 72.5 99% 29.91 0.0
31 09:35 SE 5 5.00 Fog/Mist OVC004 72.7 72 98% 29.9 0.0
31 09:15 SE 6 7.00 Overcast OVC004 72.5 72 98% 29.9 0.0
31 08:55 S 3 7.00 Overcast OVC004 72.5 71.8 98% 29.9 0.0
31 08:35 SE 6 7.00 Overcast OVC004 72.1 71.8 99% 29.9 0.0
31 08:15 SE 5 7.00 Overcast OVC004 72 71.6 99% 29.91 0.0
31 07:55 SE 7 7.00 Overcast OVC004 71.8 71.8 100% 29.91 0.0
31 07:35 SE 5 7.00 Overcast OVC004 71.6 71.6 100% 29.92 0.0
31 07:15 SE 5 7.00 Overcast OVC004 71.6 71.6 100% 29.91 0.0
31 06:55 SE 5 7.00 Overcast OVC004 71.2 71.2 71.2 70.7 100% 29.9 0.0 0.01
31 06:35 SE 5 7.00 Overcast OVC004 71.1 71.1 100% 29.9 0.0
31 06:15 Calm 5.00 Fog/Mist OVC004 70.9 70.9 100% 29.9 0.0
31 05:55 SE 5 5.00 Fog/Mist OVC004 70.7 70.7 100% 29.9 0.0
31 05:35 SE 5 5.00 Fog/Mist OVC004 70.7 70.7 100% 29.91 0.0
31 05:15 SE 7 5.00 Fog/Mist OVC004 70.7 70.7 100% 29.91 0.0
31 04:55 SE 6 5.00 Fog/Mist OVC004 70.7 70.7 100% 29.91 0.0
31 04:35 SE 6 5.00 Fog/Mist OVC004 70.7 70.7 100% 29.92 0.0
31 04:15 SE 7 5.00 Fog/Mist OVC004 70.9 70.9 100% 29.93 0.0
31 03:55 E 6 5.00 Fog/Mist OVC004 70.9 70.9 100% 29.93 0.0 0.01
31 03:35 SE 7 5.00 Fog/Mist OVC004 70.9 70.9 100% 29.92 0.0
31 03:15 SE 7 5.00 Fog/Mist OVC004 70.9 70.9 100% 29.93 0.0
31 02:55 SE 5 4.00 Fog/Mist OVC004 70.7 70.7 100% 29.93 0.0
31 02:35 SE 3 4.00 Fog/Mist OVC004 70.7 70.7 100% 29.94 0.0
31 02:15 SE 6 4.00 Fog/Mist OVC002 70.7 70.7 100% 29.95 0.0
31 01:55 SE 7 4.00 Fog/Mist OVC002 70.7 70.7 100% 29.97 0.0 0.01
31 01:35 SE 5 4.00 Fog/Mist OVC002 70.9 70.9 100% 29.97 0.0
31 01:15 SE 5 4.00 Fog/Mist OVC004 70.9 70.9 100% 29.97 0.0
31 00:55 SE 5 5.00 Fog/Mist OVC004 71.1 71.1 72.5 71.1 100% 29.98 0.0
31 00:35 SE 3 5.00 Fog/Mist OVC004 71.2 71.2 100% 29.98 0.0
31 00:15 SE 3 5.00 Rain OVC002 71.2 71.2 100% 29.97 0.0
30 23:55 SE 6 4.00 Fog/Mist OVC002 71.6 71.6 100% 29.98 0.0
30 23:35 SE 5 3.00 Drizzle OVC002 71.6 71.6 100% 29.99 0.0
30 23:15 SE 5 3.00 Fog/Mist OVC002 71.6 71.6 100% 29.99 0.0
30 22:55 Calm 3.00 Fog/Mist OVC004 71.6 71.6 100% 29.99 0.0
30 22:35 SE 3 5.00 Fog/Mist OVC004 71.8 71.8 100% 29.99 0.0
30 22:15 SE 5 5.00 Fog/Mist OVC004 71.6 71.6 100% 29.98 0.0
30 21:55 SE 6 4.00 Fog/Mist OVC004 71.6 71.6 100% 29.98 0.0
30 21:35 SE 5 3.00 Fog/Mist OVC004 71.6 71.6 100% 29.99 0.0
30 21:15 SE 5 4.00 Fog/Mist OVC004 71.6 71.6 100% 29.98 0.0
30 20:55 SE 6 4.00 Fog/Mist OVC004 71.6 71.1 98% 29.98 0.0
30 20:35 SE 6 5.00 Fog/Mist OVC006 71.8 70.7 96% 29.98 0.0
30 20:15 SE 6 7.00 Overcast OVC006 72 70 94% 29.98 0.0
30 19:55 SE 6 10.00 Overcast OVC008 72.3 69.8 92% 29.97 0.0
30 19:35 SE 6 10.00 Overcast OVC008 72.5 69.6 91% 29.97 0.0
30 19:15 SE 5 10.00 Overcast OVC010 72.5 69.4 90% 29.97 0.0
30 18:55 Calm 10.00 Overcast OVC012 72.5 69.3 74.5 72 90% 29.97 0.0
30 18:35 SE 3 10.00 Overcast OVC012 72.7 69.3 89% 29.97 0.0
30 18:15 SE 6 10.00 Overcast OVC012 72.9 69.1 88% 29.97 0.0
30 17:55 SE 5 10.00 Overcast OVC012 73 69.3 88% 29.97 0.0
30 17:35 E 8 10.00 Overcast SCT008 OVC014 73.4 69.3 87% 29.97 0.0
30 17:15 E 5 10.00 Overcast SCT008 OVC014 73.4 69.3 87% 29.97 0.0
30 16:55 E 6 10.00 Overcast SCT009 OVC014 74.3 69.4 85% 29.97 0.0
30 16:35 SE 8 10.00 Overcast OVC012 73.9 68.9 84% 29.97 0.0
30 16:15 SE 5 10.00 Overcast OVC012 73.9 69.1 85% 29.97 0.0
30 15:55 SE 5 10.00 Overcast OVC012 73.9 68.9 84% 29.97 0.0
30 15:35 E 6 10.00 Overcast BKN010 OVC014 73.4 68.9 86% 29.97 0.0
30 15:15 SE 3 10.00 Overcast OVC012 73.6 68.7 85% 29.97 0.0
30 14:55 SE 7 10.00 Overcast OVC012 73.8 68.5 84% 29.98 0.0
30 14:35 SE 5 10.00 Overcast OVC012 73.4 68.7 85% 29.98 0.0
30 14:15 E 6 10.00 Overcast SCT010 OVC015 73.8 68.7 84% 29.98 0.0
30 13:55 SE 7 10.00 Overcast OVC013 74.1 68.7 83% 29.98 0.0
30 13:35 SE 8 10.00 Overcast OVC013 73.4 68.4 84% 29.99 0.0
30 13:15 E 6 10.00 Overcast OVC009 72.5 68 86% 29.99 0.0
30 12:55 E 10 10.00 Overcast OVC009 72.3 68.4 72.3 66.7 87% 29.98 0.0
30 12:15 E 8 10.00 Overcast OVC007 70.7 68.7 93% 29.97 0.0
30 11:55 E 5 10.00 Overcast OVC005 70.3 68.7 95% 29.99 0.0
30 11:35 SE 5 10.00 Overcast OVC005 70.3 68.7 95% 30 0.0
30 11:15 E 5 7.00 Overcast OVC005 69.4 69.3 99% 29.99 0.0
30 10:55 E 7 7.00 Light Rain OVC005 69.1 68.5 98% 29.98 0.0
30 10:35 E 7 10.00 Overcast OVC005 69.3 68 96% 29.98 0.0
30 10:15 E 6 10.00 Overcast OVC005 69.3 67.8 95% 30 0.0
30 09:55 E 6 10.00 Overcast OVC003 69.4 68 95% 29.98 0.0
30 09:35 E 5 10.00 Overcast OVC003 69.4 68.4 96% 29.96 0.0
30 09:15 E 3 10.00 Overcast OVC003 68.5 68.4 99% 29.97 0.0
30 08:55 E 5 10.00 Overcast OVC003 68 68 100% 29.97 0.0
30 08:35 NE 5 7.00 Overcast OVC003 67.6 67.6 100% 29.97 0.0
30 08:15 E 5 7.00 Overcast OVC003 67.5 67.5 100% 29.97 0.0
30 07:55 Calm 7.00 Overcast OVC003 67.5 67.5 100% 29.98 0.0
30 07:35 Calm 7.00 Overcast OVC003 67.3 67.3 100% 29.98 0.0
30 07:15 Calm 5.00 Fog/Mist OVC003 67.1 67.1 100% 29.98 0.0
30 06:55 Calm 5.00 Fog/Mist OVC003 66.7 66.7 66.7 66.2 100% 29.97 0.0
30 06:35 Calm 5.00 Fog/Mist OVC003 66.6 66.6 100% 29.95 0.0
30 06:15 Calm 7.00 Overcast OVC003 66.6 66.6 100% 29.96 0.0
30 05:55 E 3 7.00 Overcast OVC003 66.7 66.7 100% 29.95 0.0
30 05:35 Calm 7.00 Overcast OVC003 66.7 66.7 100% 29.95 0.0
30 05:15 Calm 7.00 Overcast OVC003 66.7 66.7 100% 29.95 0.0
30 04:55 Calm 7.00 Overcast OVC003 66.7 66.7 100% 29.95 0.0
30 04:35 Calm 10.00 Overcast OVC003 66.7 66.7 100% 29.95 0.0
30 04:15 Calm 7.00 Overcast BKN003 OVC007 66.7 66.7 100% 29.95 0.0
30 03:55 Calm 7.00 Overcast BKN003 OVC007 66.7 66.7 100% 29.95 0.0
30 03:35 Calm 7.00 Overcast OVC005 66.6 66.6 100% 29.95 0.0
30 03:15 Calm 7.00 Overcast OVC005 66.4 66.4 100% 29.95 0.0
30 02:55 Calm 7.00 Overcast OVC005 66.2 66.2 100% 29.96 0.0
30 02:35 Calm 5.00 Fog/Mist OVC005 66.2 66.2 100% 29.96 0.0
30 02:15 Calm 5.00 Fog/Mist OVC005 66.2 66.2 100% 29.97 0.0
30 01:55 Calm 5.00 Fog/Mist OVC003 66.2 66.2 100% 29.98 0.0
30 01:35 Calm 5.00 Fog/Mist OVC003 66.2 66.2 100% 29.99 0.0
30 01:15 Calm 4.00 Fog/Mist OVC003 66.2 66.2 100% 29.99 0.0
30 00:55 Calm 3.00 Fog/Mist OVC005 66.2 66.2 66.2 64.6 100% 30 0.0 0.01
30 00:35 Calm 3.00 Fog/Mist OVC005 66.2 66.2 100% 30 0.0
30 00:15 Calm 3.00 Fog/Mist OVC005 66.2 66.2 100% 30 0.0
29 23:55 Calm 3.00 Drizzle OVC007 66.2 66.2 100% 30 0.0
29 23:35 Calm 5.00 Fog/Mist OVC007 66.2 66.2 100% 30 0.0
29 23:15 Calm 7.00 Overcast OVC007 66.2 66.2 100% 30 0.0
29 22:55 SE 3 10.00 Overcast OVC007 66.2 66.2 100% 30 0.0
29 22:35 SE 5 10.00 Overcast OVC007 66.2 66.2 100% 30 0.0
29 22:15 SE 3 7.00 Overcast BKN005 OVC009 65.8 65.8 100% 30 0.0
29 21:55 SE 3 0.00 Overcast BKN004 OVC009 65.5 65.5 100% 30 0.0 0.01
29 21:35 SE 5 3.00 Fog/Mist BKN005 OVC009 65.3 65.3 100% 30 0.0
29 21:15 SE 6 4.00 Fog/Mist BKN007 OVC012 65.3 65.3 100% 30.01 0.0
29 20:55 SE 5 7.00 Overcast SCT007 OVC014 65.3 65.3 100% 30.01 0.0
Date Time (cdt) Wind (mph) Vis. (mi.) Weather Sky Cond. Air Dwpt Max. Min. Relative Humidity Wind Chill (°F) Heat Index (°F) altimeter (in) sea level (mb) 1 hr 3 hr 6 hr
6 hour
Temperature (ºF) Pressure Precipitation (in)